Terminal Aerodrome Forecast
Issued by NWS Grand Rapids, MI

Home | Current Version | Previous Version | Text Only | Print | Product List | Glossary On
Versions: 1 2 3 4 5 6 7 8 9 10 11 12 13 14 15 16 17 18 19 20 21 22 23
000
FTUS43 KGRR 222155 AAC
TAFGRR
TAF AMD
KGRR 222155Z 2222/2318 10007KT 1 1/2SM -RA BR SCT008 OVC013
      TEMPO 2222/2302 3/4SM -RA BR OVC008
     FM230200 15007KT 3SM -DZ BR OVC015
     FM230700 21008KT 5SM -DZ BR OVC010
     FM231200 25010KT 4SM -SN BR OVC008
     FM231500 28012G22KT 3SM -SN BR OVC008=

USA.gov is the U.S. government's official web portal to all federal, state and local government web resources and services.